Time;durP1;ratioP1;P1;durP2;ratioP2;P2;SDS_P1;SDS_P2;PMS_P1;PMS_P2;Temp;Humidity;BMP_temperature;BMP_pressure;BME280_temperature;BME280_humidity;BME280_pressure;Samples;Min_cycle;Max_cycle;Signal;HPM_P1;HPM_P2
2022/03/27 00:02:20;;;;;;;2.90;2.70;;;;;;;;;;4747435;30;20132;-85
2022/03/27 00:04:49;;;;;;;2.97;2.50;;;;;;;;;;4735369;30;20062;-84
2022/03/27 00:07:15;;;;;;;2.38;2.28;;;;;;;;;;4734463;30;20052;-85
2022/03/27 00:09:41;;;;;;;2.85;2.50;;;;;;;;;;4734399;30;20040;-85
2022/03/27 00:12:07;;;;;;;4.03;2.45;;;;;;;;;;4737422;30;20395;-85
2022/03/27 00:14:33;;;;;;;3.67;2.58;;;;;;;;;;4784567;29;20055;-85
2022/03/27 00:16:59;;;;;;;2.65;2.42;;;;;;;;;;4789720;29;20062;-85
2022/03/27 00:19:25;;;;;;;2.80;2.60;;;;;;;;;;4787655;29;20146;-85
2022/03/27 00:21:51;;;;;;;2.70;2.50;;;;;;;;;;4782979;29;20043;-86
2022/03/27 00:24:17;;;;;;;2.55;2.30;;;;;;;;;;4781042;29;20059;-87
2022/03/27 00:26:43;;;;;;;2.35;2.20;;;;;;;;;;4777568;29;20047;-87
2022/03/27 00:29:10;;;;;;;2.55;2.35;;;;;;;;;;4781717;29;20077;-86
2022/03/27 00:31:38;;;;;;;2.70;2.50;;;;;;;;;;4790982;29;20054;-86
2022/03/27 00:34:04;;;;;;;2.70;2.50;;;;;;;;;;4791851;29;20082;-88
2022/03/27 00:36:30;;;;;;;2.50;2.30;;;;;;;;;;4789531;29;20107;-87
2022/03/27 00:38:56;;;;;;;3.78;2.60;;;;;;;;;;4800400;29;20130;-87
2022/03/27 00:41:24;;;;;;;2.80;2.60;;;;;;;;;;4789667;29;20129;-87
2022/03/27 00:43:50;;;;;;;2.97;2.45;;;;;;;;;;4774863;30;20065;-88
2022/03/27 00:46:16;;;;;;;2.47;2.28;;;;;;;;;;4785164;29;20505;-86
2022/03/27 00:48:42;;;;;;;3.03;2.83;;;;;;;;;;4767966;30;20054;-88
2022/03/27 00:51:09;;;;;;;2.92;2.58;;;;;;;;;;4795008;29;20039;-87
2022/03/27 00:53:35;;;;;;;3.05;2.50;;;;;;;;;;4772855;30;20047;-87
2022/03/27 00:56:01;;;;;;;3.60;2.35;;;;;;;;;;4790158;29;20458;-87
2022/03/27 00:58:27;;;;;;;2.65;2.45;;;;;;;;;;4791544;29;20059;-88
2022/03/27 01:01:05;;;;;;;2.40;2.20;;;;;;;;;;4795461;29;20507;-87
2022/03/27 01:03:31;;;;;;;2.60;2.40;;;;;;;;;;4786011;29;20047;-86
2022/03/27 01:05:57;;;;;;;2.92;2.45;;;;;;;;;;4771291;30;20131;-87
2022/03/27 01:11:12;;;;;;;3.00;2.50;;;;;;;;;;4791130;29;20055;-86
2022/03/27 01:13:39;;;;;;;3.33;2.40;;;;;;;;;;4794629;29;20129;-88
2022/03/27 01:16:12;;;;;;;2.75;2.55;;;;;;;;;;4775987;30;20036;-87
2022/03/27 01:18:41;;;;;;;2.83;2.40;;;;;;;;;;4787414;29;20510;-88
2022/03/27 01:21:11;;;;;;;2.80;2.40;;;;;;;;;;4791317;29;20047;-87
2022/03/27 01:23:37;;;;;;;2.85;2.40;;;;;;;;;;4775986;29;20118;-87
2022/03/27 01:26:03;;;;;;;3.67;2.67;;;;;;;;;;4777303;29;20320;-88
2022/03/27 01:28:29;;;;;;;3.58;2.80;;;;;;;;;;4793227;29;20075;-87
2022/03/27 01:30:57;;;;;;;3.28;2.63;;;;;;;;;;4792924;29;20043;-88
2022/03/27 01:33:23;;;;;;;5.88;3.03;;;;;;;;;;4773935;29;20481;-88
2022/03/27 01:35:49;;;;;;;5.07;3.03;;;;;;;;;;4771649;29;20043;-88
2022/03/27 01:38:15;;;;;;;3.92;3.10;;;;;;;;;;4773197;29;20061;-88
2022/03/27 01:40:41;;;;;;;3.63;3.05;;;;;;;;;;4774579;30;20471;-88
2022/03/27 01:43:07;;;;;;;4.40;2.80;;;;;;;;;;4774037;29;20062;-88
2022/03/27 01:45:37;;;;;;;7.15;2.97;;;;;;;;;;4800295;29;20047;-88
2022/03/27 01:48:04;;;;;;;4.45;3.05;;;;;;;;;;4785587;30;20054;-87
2022/03/27 01:50:30;;;;;;;6.85;3.05;;;;;;;;;;4790373;29;20051;-87
2022/03/27 01:52:56;;;;;;;5.22;3.10;;;;;;;;;;4773418;30;20051;-87
2022/03/27 01:55:22;;;;;;;5.28;2.97;;;;;;;;;;4788306;29;20429;-88
2022/03/27 01:57:48;;;;;;;7.10;3.25;;;;;;;;;;4790343;29;20070;-88
2022/03/27 02:00:14;;;;;;;4.57;3.42;;;;;;;;;;4785578;29;20054;-88
2022/03/27 02:02:40;;;;;;;7.30;3.00;;;;;;;;;;4795539;29;20047;-87
2022/03/27 02:05:07;;;;;;;6.38;3.25;;;;;;;;;;4788427;29;20400;-87
2022/03/27 02:07:42;;;;;;;7.05;3.90;;;;;;;;;;4785394;29;20044;-89
2022/03/27 02:10:08;;;;;;;6.10;3.83;;;;;;;;;;4791182;29;20047;-88
2022/03/27 02:12:35;;;;;;;5.90;4.10;;;;;;;;;;4797799;29;20398;-88
2022/03/27 02:15:01;;;;;;;5.38;3.85;;;;;;;;;;4773275;29;20504;-84
2022/03/27 02:17:27;;;;;;;9.00;4.00;;;;;;;;;;4775814;29;20583;-88
2022/03/27 02:19:54;;;;;;;6.55;4.10;;;;;;;;;;4772147;29;21037;-88
2022/03/27 02:22:19;;;;;;;6.18;4.30;;;;;;;;;;4772383;29;20186;-88
2022/03/27 02:24:45;;;;;;;5.55;4.10;;;;;;;;;;4785447;29;20055;-89
2022/03/27 02:27:11;;;;;;;9.50;3.97;;;;;;;;;;4788522;29;20055;-89
2022/03/27 02:29:37;;;;;;;10.40;4.53;;;;;;;;;;4781902;29;20079;-87
2022/03/27 02:32:04;;;;;;;6.18;4.25;;;;;;;;;;4795222;29;20078;-87
2022/03/27 02:34:30;;;;;;;7.65;4.72;;;;;;;;;;4771816;29;20134;-88
2022/03/27 02:36:56;;;;;;;8.95;5.18;;;;;;;;;;4776298;30;20189;-88
2022/03/27 02:39:22;;;;;;;9.55;5.38;;;;;;;;;;4787202;29;20044;-88
2022/03/27 02:41:48;;;;;;;8.07;6.22;;;;;;;;;;4773219;30;20144;-88
2022/03/27 02:44:14;;;;;;;9.05;6.55;;;;;;;;;;4789230;29;20051;-86
2022/03/27 02:46:40;;;;;;;8.55;6.10;;;;;;;;;;4782022;29;20065;-86
2022/03/27 02:49:09;;;;;;;8.40;5.78;;;;;;;;;;4808709;29;20073;-87
2022/03/27 02:51:35;;;;;;;10.25;6.20;;;;;;;;;;4789098;29;20050;-87
2022/03/27 02:54:01;;;;;;;10.93;5.95;;;;;;;;;;4786661;29;20046;-88
2022/03/27 02:56:27;;;;;;;9.98;5.70;;;;;;;;;;4795343;29;20044;-88
2022/03/27 02:58:53;;;;;;;9.07;5.78;;;;;;;;;;4804855;29;20441;-87
2022/03/27 03:01:19;;;;;;;8.93;5.60;;;;;;;;;;4776222;29;20499;-87
2022/03/27 03:03:45;;;;;;;11.05;6.50;;;;;;;;;;4770457;29;20599;-88
2022/03/27 03:06:11;;;;;;;11.73;6.22;;;;;;;;;;4789732;29;20508;-88
2022/03/27 03:08:38;;;;;;;9.27;5.32;;;;;;;;;;4777678;29;20051;-88
2022/03/27 03:11:04;;;;;;;8.52;5.60;;;;;;;;;;4779659;29;20047;-86
2022/03/27 03:13:31;;;;;;;11.88;5.85;;;;;;;;;;4773624;29;20470;-88
2022/03/27 03:15:57;;;;;;;12.23;6.03;;;;;;;;;;4806264;29;20039;-88
2022/03/27 03:18:25;;;;;;;11.90;5.65;;;;;;;;;;4795839;29;20508;-88
2022/03/27 03:20:54;;;;;;;8.02;5.07;;;;;;;;;;4792409;29;20492;-89
2022/03/27 03:23:20;;;;;;;11.48;4.85;;;;;;;;;;4775411;29;20054;-88
2022/03/27 03:25:46;;;;;;;13.00;4.60;;;;;;;;;;4782445;30;20047;-89
2022/03/27 03:28:12;;;;;;;8.88;4.40;;;;;;;;;;4780127;29;20130;-88
2022/03/27 03:30:38;;;;;;;9.63;5.20;;;;;;;;;;4790053;29;20137;-88
2022/03/27 03:33:04;;;;;;;9.38;4.65;;;;;;;;;;4776327;30;20047;-89
2022/03/27 03:35:30;;;;;;;13.85;5.05;;;;;;;;;;4795802;29;20420;-89
2022/03/27 03:37:56;;;;;;;13.35;5.00;;;;;;;;;;4789134;29;20048;-89
2022/03/27 03:40:23;;;;;;;11.43;4.95;;;;;;;;;;4777562;29;20142;-88
2022/03/27 03:42:49;;;;;;;11.38;4.70;;;;;;;;;;4791848;29;20196;-87
2022/03/27 03:45:15;;;;;;;10.27;4.43;;;;;;;;;;4804915;29;20051;-87
2022/03/27 03:47:41;;;;;;;11.85;5.03;;;;;;;;;;4807783;29;20119;-89
2022/03/27 03:50:07;;;;;;;11.02;4.60;;;;;;;;;;4805274;29;20043;-88
2022/03/27 03:52:33;;;;;;;13.50;4.90;;;;;;;;;;4793211;29;20684;-87
2022/03/27 03:54:59;;;;;;;10.00;4.40;;;;;;;;;;4805467;29;20055;-87
2022/03/27 03:57:25;;;;;;;11.90;4.68;;;;;;;;;;4791649;29;20145;-87
2022/03/27 03:59:51;;;;;;;12.75;4.22;;;;;;;;;;4796451;29;20184;-87
2022/03/27 04:02:19;;;;;;;12.90;5.05;;;;;;;;;;4797638;29;20050;-88
2022/03/27 04:04:45;;;;;;;14.77;5.40;;;;;;;;;;4810870;29;20505;-88
2022/03/27 04:07:11;;;;;;;11.25;5.05;;;;;;;;;;4821213;29;20074;-85
2022/03/27 04:09:37;;;;;;;13.30;5.97;;;;;;;;;;4805877;29;20091;-88
2022/03/27 04:12:04;;;;;;;14.10;6.45;;;;;;;;;;4804884;29;20062;-88
2022/03/27 04:14:34;;;;;;;14.00;6.45;;;;;;;;;;4807225;29;20495;-88
2022/03/27 04:17:00;;;;;;;15.57;6.05;;;;;;;;;;4789868;29;20544;-88
2022/03/27 04:19:27;;;;;;;17.65;5.80;;;;;;;;;;4804361;29;20063;-88
2022/03/27 04:21:53;;;;;;;13.68;6.22;;;;;;;;;;4791886;29;20046;-88
2022/03/27 04:24:19;;;;;;;11.35;6.10;;;;;;;;;;4805792;29;20107;-88
2022/03/27 04:26:45;;;;;;;13.85;6.28;;;;;;;;;;4802419;29;20082;-88
2022/03/27 04:29:12;;;;;;;16.55;6.50;;;;;;;;;;4807910;29;20054;-88
2022/03/27 04:31:38;;;;;;;14.70;6.18;;;;;;;;;;4806960;29;20065;-88
2022/03/27 04:34:04;;;;;;;13.60;5.78;;;;;;;;;;4797733;29;20051;-87
2022/03/27 04:36:30;;;;;;;13.25;5.95;;;;;;;;;;4795052;29;20466;-88
2022/03/27 04:38:56;;;;;;;16.63;6.43;;;;;;;;;;4808208;29;20130;-88
2022/03/27 04:41:22;;;;;;;15.35;6.20;;;;;;;;;;4805577;29;20051;-87
2022/03/27 04:43:48;;;;;;;18.63;6.82;;;;;;;;;;4810279;29;20047;-89
2022/03/27 04:46:15;;;;;;;15.63;6.47;;;;;;;;;;4802677;29;20086;-87
2022/03/27 04:48:41;;;;;;;17.35;7.15;;;;;;;;;;4795990;29;20133;-89
2022/03/27 04:51:07;;;;;;;15.10;7.70;;;;;;;;;;4804239;29;20106;-88
2022/03/27 04:53:33;;;;;;;16.75;8.25;;;;;;;;;;4806913;29;20038;-88
2022/03/27 04:55:59;;;;;;;16.23;8.35;;;;;;;;;;4803128;29;20051;-88
2022/03/27 04:58:25;;;;;;;18.83;8.00;;;;;;;;;;4805112;29;20053;-89
2022/03/27 05:00:52;;;;;;;16.58;7.53;;;;;;;;;;4803473;29;20043;-88
2022/03/27 05:03:18;;;;;;;16.05;7.88;;;;;;;;;;4806434;29;20556;-88
2022/03/27 05:05:44;;;;;;;18.40;7.90;;;;;;;;;;4805197;29;20050;-89
2022/03/27 05:08:10;;;;;;;15.55;7.00;;;;;;;;;;4806596;29;20042;-89
2022/03/27 05:10:36;;;;;;;17.15;6.32;;;;;;;;;;4807900;29;20393;-89
2022/03/27 05:13:03;;;;;;;16.17;6.40;;;;;;;;;;4774449;29;20635;-90
2022/03/27 05:15:29;;;;;;;16.52;6.28;;;;;;;;;;4806236;29;20896;-90
2022/03/27 05:17:58;;;;;;;16.77;6.28;;;;;;;;;;4798316;29;20085;-90
2022/03/27 05:20:25;;;;;;;16.23;5.80;;;;;;;;;;4806693;29;20042;-90
2022/03/27 05:22:51;;;;;;;15.93;5.88;;;;;;;;;;4809050;29;20043;-90
2022/03/27 05:25:18;;;;;;;14.88;6.10;;;;;;;;;;4806779;29;20052;-91
2022/03/27 05:27:48;;;;;;;20.35;5.78;;;;;;;;;;4805663;29;20046;-90
2022/03/27 05:30:16;;;;;;;19.20;6.00;;;;;;;;;;4804980;29;20051;-89
2022/03/27 05:32:42;;;;;;;13.63;5.43;;;;;;;;;;4799785;29;20381;-88
2022/03/27 05:35:09;;;;;;;16.02;5.50;;;;;;;;;;4783908;29;20055;-90
2022/03/27 05:37:36;;;;;;;18.75;5.82;;;;;;;;;;4807412;29;20054;-89
2022/03/27 05:40:03;;;;;;;18.55;5.65;;;;;;;;;;4791092;29;20502;-89
2022/03/27 05:42:29;;;;;;;14.50;5.65;;;;;;;;;;4788345;29;20063;-88
2022/03/27 05:44:55;;;;;;;19.13;5.88;;;;;;;;;;4791583;29;20086;-88
2022/03/27 05:47:21;;;;;;;19.30;5.63;;;;;;;;;;4794567;29;20058;-89
2022/03/27 05:49:48;;;;;;;22.65;5.80;;;;;;;;;;4805469;29;20061;-88
2022/03/27 05:52:16;;;;;;;11.32;5.13;;;;;;;;;;4791271;29;20046;-90
2022/03/27 05:54:42;;;;;;;14.23;5.38;;;;;;;;;;4803985;29;20059;-90
2022/03/27 05:57:08;;;;;;;21.80;5.78;;;;;;;;;;4791168;29;20043;-89
2022/03/27 05:59:34;;;;;;;16.80;5.20;;;;;;;;;;4806039;29;20054;-90
2022/03/27 06:02:00;;;;;;;19.73;4.85;;;;;;;;;;4807114;29;20127;-89
2022/03/27 06:04:26;;;;;;;20.60;5.97;;;;;;;;;;4791838;29;20152;-88
2022/03/27 06:06:53;;;;;;;17.30;5.10;;;;;;;;;;4807466;29;20047;-90
2022/03/27 06:09:19;;;;;;;15.80;5.05;;;;;;;;;;4800099;29;20051;-89
2022/03/27 06:11:45;;;;;;;17.05;5.35;;;;;;;;;;4811410;29;20070;-87
2022/03/27 06:14:11;;;;;;;17.27;6.20;;;;;;;;;;4815855;29;20518;-89
2022/03/27 06:16:38;;;;;;;15.48;4.47;;;;;;;;;;4811812;29;20047;-88
2022/03/27 06:19:04;;;;;;;17.63;5.30;;;;;;;;;;4811801;29;20046;-88
2022/03/27 06:21:30;;;;;;;17.75;5.38;;;;;;;;;;4822181;29;20039;-89
2022/03/27 06:23:56;;;;;;;15.85;5.45;;;;;;;;;;4790650;29;20055;-89
2022/03/27 06:26:22;;;;;;;14.85;5.50;;;;;;;;;;4790672;29;20413;-88
2022/03/27 06:28:48;;;;;;;21.05;6.30;;;;;;;;;;4790511;29;20492;-89
2022/03/27 06:31:14;;;;;;;21.25;5.72;;;;;;;;;;4790368;29;20054;-89
2022/03/27 06:33:40;;;;;;;20.88;7.28;;;;;;;;;;4805089;29;20120;-89
2022/03/27 06:36:06;;;;;;;16.25;4.93;;;;;;;;;;4796171;29;20043;-90
2022/03/27 06:38:32;;;;;;;22.92;5.22;;;;;;;;;;4804050;29;20062;-89
2022/03/27 06:41:03;;;;;;;25.85;5.95;;;;;;;;;;4805876;29;20058;-88
2022/03/27 06:43:29;;;;;;;19.63;5.30;;;;;;;;;;4789514;29;20142;-90
2022/03/27 06:45:55;;;;;;;16.05;5.53;;;;;;;;;;4801408;29;20209;-90
2022/03/27 06:48:21;;;;;;;19.55;5.60;;;;;;;;;;4789830;29;20071;-90
2022/03/27 06:50:47;;;;;;;18.98;5.75;;;;;;;;;;4803877;29;20039;-89
2022/03/27 06:53:20;;;;;;;18.30;5.35;;;;;;;;;;4808158;29;20047;-91
2022/03/27 06:55:47;;;;;;;15.27;5.35;;;;;;;;;;4796924;29;20107;-90
2022/03/27 06:58:13;;;;;;;19.23;5.72;;;;;;;;;;4803843;29;20050;-89
2022/03/27 07:03:24;;;;;;;18.15;5.15;;;;;;;;;;4784202;29;20079;-90
2022/03/27 07:05:53;;;;;;;18.10;5.57;;;;;;;;;;4788943;29;20165;-90
2022/03/27 07:08:20;;;;;;;20.23;5.72;;;;;;;;;;4803775;29;20042;-90
2022/03/27 07:10:47;;;;;;;20.58;5.40;;;;;;;;;;4788115;29;20051;-89
2022/03/27 07:13:13;;;;;;;20.85;6.13;;;;;;;;;;4805163;29;20058;-89
2022/03/27 07:15:40;;;;;;;19.58;5.78;;;;;;;;;;4803691;29;20046;-88
2022/03/27 07:18:07;;;;;;;21.88;5.18;;;;;;;;;;4791604;29;20043;-88
2022/03/27 07:20:34;;;;;;;20.95;5.65;;;;;;;;;;4802555;29;20047;-90
2022/03/27 07:23:04;;;;;;;19.73;5.22;;;;;;;;;;4789636;29;20408;-89
2022/03/27 07:25:34;;;;;;;14.27;5.05;;;;;;;;;;4802459;29;20089;-90
2022/03/27 07:28:00;;;;;;;17.25;5.07;;;;;;;;;;4785696;29;20066;-90
2022/03/27 07:30:26;;;;;;;16.60;5.10;;;;;;;;;;4790356;29;20069;-90
2022/03/27 07:32:53;;;;;;;17.75;4.57;;;;;;;;;;4793130;29;20047;-91
2022/03/27 07:35:19;;;;;;;18.95;4.72;;;;;;;;;;4800786;29;20045;-90
2022/03/27 07:37:46;;;;;;;15.73;5.43;;;;;;;;;;4798726;29;20457;-89
2022/03/27 07:40:12;;;;;;;18.88;4.80;;;;;;;;;;4793066;29;20051;-89
2022/03/27 07:42:40;;;;;;;17.65;5.10;;;;;;;;;;4807826;29;20049;-90
2022/03/27 07:45:06;;;;;;;18.83;5.13;;;;;;;;;;4810667;29;20046;-88
2022/03/27 07:47:33;;;;;;;20.35;5.32;;;;;;;;;;4806849;29;20058;-90
2022/03/27 07:49:59;;;;;;;14.75;5.30;;;;;;;;;;4807694;29;20049;-90
2022/03/27 07:52:26;;;;;;;16.33;5.03;;;;;;;;;;4804793;29;20453;-90
2022/03/27 07:54:52;;;;;;;20.48;5.43;;;;;;;;;;4794794;29;20050;-90
2022/03/27 07:57:20;;;;;;;20.70;5.05;;;;;;;;;;4792774;29;20129;-90
2022/03/27 07:59:46;;;;;;;14.90;4.60;;;;;;;;;;4808693;29;20059;-90
2022/03/27 08:02:12;;;;;;;21.98;5.57;;;;;;;;;;4791887;29;20487;-89
2022/03/27 08:04:38;;;;;;;21.65;5.78;;;;;;;;;;4810576;29;20053;-86
2022/03/27 08:07:07;;;;;;;17.65;5.28;;;;;;;;;;4806848;29;20448;-89
2022/03/27 08:09:33;;;;;;;20.63;5.72;;;;;;;;;;4794158;29;20121;-90
2022/03/27 08:11:59;;;;;;;18.20;6.05;;;;;;;;;;4807528;29;20172;-90
2022/03/27 08:14:28;;;;;;;18.08;5.22;;;;;;;;;;4793451;29;20073;-89
2022/03/27 08:16:55;;;;;;;20.55;5.50;;;;;;;;;;4793056;29;20123;-89
2022/03/27 08:19:22;;;;;;;18.38;4.82;;;;;;;;;;4797928;29;20507;-89
2022/03/27 08:21:48;;;;;;;19.55;5.50;;;;;;;;;;4797927;29;20484;-89
2022/03/27 08:24:14;;;;;;;18.00;5.85;;;;;;;;;;4807019;29;20082;-89
2022/03/27 08:29:25;;;;;;;20.75;5.30;;;;;;;;;;4809287;29;20424;-89
2022/03/27 08:31:52;;;;;;;20.08;5.78;;;;;;;;;;4801977;29;20055;-89
2022/03/27 08:34:19;;;;;;;21.38;5.55;;;;;;;;;;4807407;29;20089;-89
2022/03/27 08:36:46;;;;;;;22.92;5.65;;;;;;;;;;4817856;29;20058;-87
2022/03/27 08:39:12;;;;;;;23.40;5.45;;;;;;;;;;4816069;29;20034;-88
2022/03/27 08:41:45;;;;;;;18.88;5.90;;;;;;;;;;4809989;29;20171;-86
2022/03/27 08:44:13;;;;;;;19.75;5.40;;;;;;;;;;4802483;29;20088;-90
2022/03/27 08:46:41;;;;;;;21.63;6.00;;;;;;;;;;4809779;29;20498;-89
2022/03/27 08:49:25;;;;;;;17.30;5.45;;;;;;;;;;4802939;29;20098;-88
2022/03/27 08:52:04;;;;;;;15.60;6.07;;;;;;;;;;4796817;29;20057;-90
2022/03/27 08:54:39;;;;;;;18.60;5.80;;;;;;;;;;4789320;29;20051;-90
2022/03/27 08:57:21;;;;;;;19.33;5.72;;;;;;;;;;4809435;29;20077;-88
2022/03/27 08:59:48;;;;;;;16.92;6.75;;;;;;;;;;4804037;29;20101;-81
2022/03/27 09:02:14;;;;;;;17.35;6.15;;;;;;;;;;4801950;29;20540;-83
2022/03/27 09:04:41;;;;;;;14.98;6.28;;;;;;;;;;4790205;29;20043;-84
2022/03/27 09:07:07;;;;;;;15.70;6.07;;;;;;;;;;4799310;29;20042;-83
2022/03/27 09:09:35;;;;;;;13.93;6.45;;;;;;;;;;4805255;29;20047;-85
2022/03/27 09:12:03;;;;;;;15.48;5.95;;;;;;;;;;4803363;29;20046;-85
2022/03/27 09:14:31;;;;;;;16.40;6.25;;;;;;;;;;4800565;29;20074;-84
2022/03/27 09:17:07;;;;;;;14.48;5.45;;;;;;;;;;4788401;29;20050;-84
2022/03/27 09:19:34;;;;;;;18.42;6.00;;;;;;;;;;4803191;29;20051;-84
2022/03/27 09:22:02;;;;;;;15.32;5.60;;;;;;;;;;4802248;29;20059;-84
2022/03/27 09:24:35;;;;;;;17.50;5.13;;;;;;;;;;4804933;29;20491;-84
2022/03/27 09:27:07;;;;;;;13.90;5.35;;;;;;;;;;4788925;29;20513;-84
2022/03/27 09:29:55;;;;;;;16.02;5.03;;;;;;;;;;4787412;29;20066;-83
2022/03/27 09:32:25;;;;;;;13.68;5.07;;;;;;;;;;4790526;29;20125;-84
2022/03/27 09:35:02;;;;;;;12.45;5.07;;;;;;;;;;4796552;29;20050;-86
2022/03/27 09:37:29;;;;;;;10.68;4.50;;;;;;;;;;4789468;29;20089;-83
2022/03/27 09:39:56;;;;;;;12.02;4.90;;;;;;;;;;4786250;29;20146;-84
2022/03/27 09:42:23;;;;;;;16.55;4.93;;;;;;;;;;4783869;29;20058;-84
2022/03/27 09:44:50;;;;;;;11.32;4.70;;;;;;;;;;4802933;29;20046;-86
2022/03/27 09:47:16;;;;;;;12.48;4.57;;;;;;;;;;4797548;29;20047;-85
2022/03/27 09:49:44;;;;;;;11.63;3.60;;;;;;;;;;4786887;29;20051;-84
2022/03/27 09:52:15;;;;;;;10.07;4.35;;;;;;;;;;4785949;29;20078;-84
2022/03/27 09:54:51;;;;;;;12.15;4.70;;;;;;;;;;4800724;29;20055;-84
2022/03/27 09:57:21;;;;;;;11.10;4.90;;;;;;;;;;4795242;29;20066;-84
2022/03/27 09:59:49;;;;;;;11.52;4.03;;;;;;;;;;4782467;29;20043;-84
2022/03/27 10:02:21;;;;;;;11.77;4.95;;;;;;;;;;4782787;29;20067;-84
2022/03/27 10:04:54;;;;;;;11.00;3.90;;;;;;;;;;4800372;29;20479;-84
2022/03/27 10:07:22;;;;;;;11.60;4.20;;;;;;;;;;4800344;29;20047;-84
2022/03/27 10:09:49;;;;;;;9.55;4.07;;;;;;;;;;4786840;29;20061;-84
2022/03/27 10:12:15;;;;;;;9.55;3.78;;;;;;;;;;4800333;29;20092;-84
2022/03/27 10:14:42;;;;;;;9.98;4.13;;;;;;;;;;4785986;29;20504;-84
2022/03/27 10:17:12;;;;;;;11.55;3.92;;;;;;;;;;4787865;29;20337;-84
2022/03/27 10:19:39;;;;;;;12.93;3.63;;;;;;;;;;4786401;29;20051;-83
2022/03/27 10:22:06;;;;;;;9.20;3.38;;;;;;;;;;4786819;29;20046;-84
2022/03/27 10:24:32;;;;;;;8.15;3.42;;;;;;;;;;4784830;29;20050;-84
2022/03/27 10:27:01;;;;;;;9.55;3.03;;;;;;;;;;4799347;29;20043;-84
2022/03/27 10:29:27;;;;;;;9.07;3.38;;;;;;;;;;4787166;29;20067;-84
2022/03/27 10:31:53;;;;;;;7.28;2.92;;;;;;;;;;4797373;29;20045;-84
2022/03/27 10:34:23;;;;;;;9.80;3.47;;;;;;;;;;4787502;29;20043;-85
2022/03/27 10:36:49;;;;;;;7.30;2.95;;;;;;;;;;4785697;29;20039;-84
2022/03/27 10:39:23;;;;;;;6.75;2.67;;;;;;;;;;4788441;29;20046;-84
2022/03/27 10:41:58;;;;;;;7.95;2.70;;;;;;;;;;4799896;29;20063;-83
2022/03/27 10:44:37;;;;;;;10.27;3.45;;;;;;;;;;4787055;29;20403;-83
2022/03/27 10:47:23;;;;;;;10.48;4.22;;;;;;;;;;4801770;29;20110;-84
2022/03/27 10:50:01;;;;;;;10.13;3.38;;;;;;;;;;4783241;29;20055;-87
2022/03/27 10:52:31;;;;;;;9.63;4.13;;;;;;;;;;4790900;29;20067;-85
2022/03/27 10:55:11;;;;;;;9.35;3.00;;;;;;;;;;4790584;29;20119;-86
2022/03/27 10:57:42;;;;;;;9.82;3.35;;;;;;;;;;4793927;29;20074;-85
2022/03/27 11:00:09;;;;;;;8.35;3.10;;;;;;;;;;4790644;29;20116;-86
2022/03/27 11:02:43;;;;;;;9.05;2.88;;;;;;;;;;4807487;29;20078;-85
2022/03/27 11:05:09;;;;;;;6.70;2.60;;;;;;;;;;4788613;29;20133;-84
2022/03/27 11:07:35;;;;;;;6.00;2.50;;;;;;;;;;4785733;29;20043;-86
2022/03/27 11:10:01;;;;;;;8.60;3.17;;;;;;;;;;4797259;29;20073;-85
2022/03/27 11:12:30;;;;;;;6.78;3.03;;;;;;;;;;4787317;29;20058;-85
2022/03/27 11:15:00;;;;;;;5.55;2.50;;;;;;;;;;4791631;29;20458;-86
2022/03/27 11:17:34;;;;;;;9.20;2.72;;;;;;;;;;4786665;29;20062;-86
2022/03/27 11:20:00;;;;;;;5.70;2.63;;;;;;;;;;4787124;29;20062;-86
2022/03/27 11:22:47;;;;;;;5.13;2.10;;;;;;;;;;4790908;29;20507;-86
2022/03/27 11:25:28;;;;;;;6.43;2.53;;;;;;;;;;4804079;29;20047;-87
2022/03/27 11:27:56;;;;;;;7.00;2.80;;;;;;;;;;4804103;29;20050;-88
2022/03/27 12:03:30;;;;;;;3.90;2.10;;;;;;;;;;4809435;24;20053;-85
2022/03/27 12:42:36;;;;;;;6.88;2.30;;;;;;;;;;5511985;24;20065;-82
2022/03/27 12:45:22;;;;;;;7.07;2.58;;;;;;;;;;4802560;29;20078;-83
2022/03/27 12:48:05;;;;;;;6.85;2.25;;;;;;;;;;4787802;29;20047;-82
2022/03/27 12:50:37;;;;;;;7.75;2.80;;;;;;;;;;4787034;29;20058;-82
2022/03/27 12:53:03;;;;;;;6.78;2.92;;;;;;;;;;4787794;29;20054;-82
2022/03/27 12:55:47;;;;;;;8.27;2.70;;;;;;;;;;4785366;29;20051;-83
2022/03/27 12:58:16;;;;;;;10.02;2.85;;;;;;;;;;4783268;29;20416;-82
2022/03/27 13:00:43;;;;;;;6.72;3.08;;;;;;;;;;4803062;29;20062;-83
2022/03/27 13:03:09;;;;;;;7.88;2.72;;;;;;;;;;4802479;29;20488;-82
2022/03/27 13:05:35;;;;;;;9.48;3.20;;;;;;;;;;4801505;29;20512;-82
2022/03/27 13:08:04;;;;;;;11.90;3.60;;;;;;;;;;4795762;29;20046;-83
2022/03/27 13:10:33;;;;;;;10.63;3.60;;;;;;;;;;4796453;29;20106;-83
2022/03/27 13:12:59;;;;;;;13.55;4.30;;;;;;;;;;4784128;29;20043;-83
2022/03/27 13:15:35;;;;;;;12.18;3.92;;;;;;;;;;4786934;29;20058;-83
2022/03/27 13:25:16;;;;;;;12.93;4.13;;;;;;;;;;4806059;24;20122;-84
2022/03/27 13:36:55;;;;;;;12.77;5.03;;;;;;;;;;4941611;24;20068;-83
2022/03/27 13:44:45;;;;;;;13.63;4.95;;;;;;;;;;5544475;23;20415;-82
2022/03/27 13:47:14;;;;;;;10.82;4.13;;;;;;;;;;4815375;29;20047;-82
2022/03/27 14:02:40;;;;;;;10.85;4.30;;;;;;;;;;4798462;29;20169;-82
2022/03/27 14:05:06;;;;;;;14.00;4.28;;;;;;;;;;4762836;29;20063;-81
2022/03/27 14:07:32;;;;;;;8.73;3.95;;;;;;;;;;4766683;30;20090;-82
2022/03/27 14:10:01;;;;;;;11.48;4.55;;;;;;;;;;4786096;30;20051;-82
2022/03/27 14:12:28;;;;;;;8.93;3.55;;;;;;;;;;4779051;30;20047;-82
2022/03/27 14:14:54;;;;;;;8.23;3.75;;;;;;;;;;4781955;30;20055;-83
2022/03/27 14:17:21;;;;;;;9.40;4.00;;;;;;;;;;4784660;29;20050;-82
2022/03/27 14:19:47;;;;;;;8.63;3.60;;;;;;;;;;4780947;29;20044;-81
2022/03/27 14:22:15;;;;;;;7.85;3.60;;;;;;;;;;4779624;30;20437;-81
2022/03/27 14:24:41;;;;;;;13.07;3.72;;;;;;;;;;4784433;30;20496;-82
2022/03/27 14:27:08;;;;;;;10.65;3.70;;;;;;;;;;4767473;30;20100;-82
2022/03/27 14:29:35;;;;;;;8.45;3.50;;;;;;;;;;4783216;30;20455;-82
2022/03/27 14:32:01;;;;;;;8.93;3.35;;;;;;;;;;4795449;24;20065;-82
2022/03/27 14:34:30;;;;;;;7.80;3.03;;;;;;;;;;4776979;29;20142;-82
2022/03/27 14:40:19;;;;;;;8.00;3.50;;;;;;;;;;4803958;24;21243;-82
2022/03/27 14:53:03;;;;;;;9.38;3.75;;;;;;;;;;4731360;30;20052;-80
2022/03/27 14:56:01;;;;;;;8.68;3.50;;;;;;;;;;4728898;30;20161;-79
2022/03/27 14:58:54;;;;;;;6.88;3.28;;;;;;;;;;4680645;30;20065;-81
2022/03/27 15:01:57;;;;;;;8.45;3.47;;;;;;;;;;4696984;30;20057;-82
2022/03/27 15:11:59;;;;;;;;;;;;;;;;;;;;;
2022/03/27 15:15:07;;;;;;;;;;;;;;;;;;4793315;29;20496;-80
2022/03/27 15:18:11;;;;;;;8.77;3.30;;;;;;;;;;4817931;29;20303;-83
2022/03/27 15:20:38;;;;;;;8.27;3.53;;;;;;;;;;4805467;29;20135;-82
2022/03/27 15:23:10;;;;;;;8.75;3.92;;;;;;;;;;4808024;29;20051;-81
2022/03/27 15:25:42;;;;;;;7.03;3.13;;;;;;;;;;4820158;29;20050;-81
2022/03/27 15:28:09;;;;;;;7.85;3.55;;;;;;;;;;4804013;29;20043;-79
2022/03/27 15:30:44;;;;;;;6.82;3.30;;;;;;;;;;4815054;29;20564;-80
2022/03/27 15:37:13;;;;;;;9.32;3.78;;;;;;;;;;4822814;29;20158;-81
2022/03/27 15:39:39;;;;;;;9.65;3.70;;;;;;;;;;4804977;29;20156;-81
2022/03/27 15:42:06;;;;;;;8.98;3.53;;;;;;;;;;4802361;29;20046;-80
2022/03/27 15:44:41;;;;;;;6.90;3.47;;;;;;;;;;4805412;29;20140;-79
2022/03/27 15:47:48;;;;;;;;;;;;;;;;;;;;;
2022/03/27 15:50:49;;;;;;;9.48;4.03;;;;;;;;;;4814100;29;20080;-80
2022/03/27 15:53:15;;;;;;;8.27;3.30;;;;;;;;;;4801711;29;20058;-77
2022/03/27 15:55:41;;;;;;;8.32;3.10;;;;;;;;;;4824723;29;20046;-79
2022/03/27 15:58:07;;;;;;;9.18;3.63;;;;;;;;;;4813036;29;20179;-79
2022/03/27 16:00:34;;;;;;;7.53;3.40;;;;;;;;;;4805542;29;20128;-81
2022/03/27 16:03:00;;;;;;;8.48;3.45;;;;;;;;;;4831903;29;20101;-80
2022/03/27 16:05:27;;;;;;;9.73;3.58;;;;;;;;;;4828895;29;20050;-81
2022/03/27 16:07:53;;;;;;;7.30;3.40;;;;;;;;;;4809969;29;20050;-79
2022/03/27 16:10:19;;;;;;;8.38;3.40;;;;;;;;;;4819722;29;20065;-81
2022/03/27 16:12:45;;;;;;;7.78;3.40;;;;;;;;;;4805590;29;20050;-80
2022/03/27 16:15:14;;;;;;;9.57;4.05;;;;;;;;;;4821526;29;20056;-80
2022/03/27 16:17:40;;;;;;;8.80;3.75;;;;;;;;;;4805462;29;20111;-91
2022/03/27 16:20:08;;;;;;;8.68;3.50;;;;;;;;;;4807693;29;20051;-89
2022/03/27 16:22:34;;;;;;;7.82;3.60;;;;;;;;;;4807893;29;20046;-88
2022/03/27 16:25:00;;;;;;;8.25;3.80;;;;;;;;;;4822608;29;20087;-82
2022/03/27 16:27:26;;;;;;;6.03;3.40;;;;;;;;;;4828080;29;20043;-85
2022/03/27 16:29:52;;;;;;;6.60;3.55;;;;;;;;;;4825738;29;20030;-88
2022/03/27 16:32:18;;;;;;;8.88;3.75;;;;;;;;;;4838030;29;20050;-86
2022/03/27 16:34:45;;;;;;;8.25;3.95;;;;;;;;;;4824847;29;20491;-87
2022/03/27 16:37:11;;;;;;;8.43;4.10;;;;;;;;;;4821834;29;20503;-81
2022/03/27 16:39:37;;;;;;;7.72;4.10;;;;;;;;;;4814705;29;20057;-79
2022/03/27 16:42:03;;;;;;;8.18;3.90;;;;;;;;;;4816928;29;20468;-82
2022/03/27 16:44:29;;;;;;;7.35;3.72;;;;;;;;;;4805155;29;20787;-79
2022/03/27 16:46:55;;;;;;;7.90;3.85;;;;;;;;;;4820741;29;20061;-79
2022/03/27 16:49:23;;;;;;;10.20;3.60;;;;;;;;;;4805285;29;20054;-81
2022/03/27 16:51:49;;;;;;;9.32;3.55;;;;;;;;;;4790981;29;20057;-79
2022/03/27 16:54:19;;;;;;;8.20;3.50;;;;;;;;;;4820452;29;20046;-79
2022/03/27 16:56:45;;;;;;;8.27;3.67;;;;;;;;;;4805357;29;20058;-82
2022/03/27 16:59:11;;;;;;;7.90;3.92;;;;;;;;;;4818975;29;20411;-84
2022/03/27 17:01:37;;;;;;;7.35;3.30;;;;;;;;;;4820733;29;20043;-78
2022/03/27 17:04:03;;;;;;;7.15;3.33;;;;;;;;;;4821658;29;20046;-78